createdAt,value
2022-11-27T00:02:04.288Z,17.90
2022-11-27T00:04:48.237Z,16.83
2022-11-27T00:07:33.570Z,18.27
2022-11-27T00:10:17.874Z,16.50
2022-11-27T00:13:01.780Z,18.93
2022-11-27T00:15:46.032Z,21.30
2022-11-27T00:18:30.160Z,19.47
2022-11-27T00:21:16.364Z,18.43
2022-11-27T00:24:03.817Z,21.37
2022-11-27T00:26:49.866Z,18.37
2022-11-27T00:29:33.691Z,21.57
2022-11-27T00:32:17.504Z,19.13
2022-11-27T00:35:01.203Z,19.27
2022-11-27T00:37:44.940Z,18.83
2022-11-27T00:40:30.057Z,23.93
2022-11-27T00:43:13.838Z,21.37
2022-11-27T00:45:57.608Z,19.03
2022-11-27T00:48:41.410Z,19.03
2022-11-27T00:51:25.836Z,22.27
2022-11-27T00:54:09.862Z,19.33
2022-11-27T00:56:55.170Z,21.20
2022-11-27T00:59:39.169Z,18.43
2022-11-27T01:02:23.186Z,19.47
2022-11-27T01:05:08.006Z,21.00
2022-11-27T01:07:51.754Z,19.57
2022-11-27T01:10:35.573Z,19.40
2022-11-27T01:13:21.030Z,20.50
2022-11-27T01:16:07.406Z,20.13
2022-11-27T01:18:52.375Z,23.03
2022-11-27T01:21:36.667Z,19.70
2022-11-27T01:24:20.387Z,18.63
2022-11-27T01:27:04.277Z,21.03
2022-11-27T01:29:49.507Z,21.23
2022-11-27T01:32:33.417Z,22.53
2022-11-27T01:35:17.505Z,22.20
2022-11-27T01:38:01.530Z,18.53
2022-11-27T01:40:45.575Z,20.47
2022-11-27T01:43:42.085Z,22.77
2022-11-27T01:46:40.993Z,22.43
2022-11-27T01:49:30.953Z,21.87
2022-11-27T01:52:19.941Z,20.83
2022-11-27T01:55:09.056Z,21.60
2022-11-27T01:57:56.370Z,23.20
2022-11-27T02:00:40.797Z,20.27
2022-11-27T02:03:26.297Z,20.50
2022-11-27T02:06:13.345Z,21.20
2022-11-27T02:08:58.037Z,21.57
2022-11-27T02:11:50.571Z,22.73
2022-11-27T02:15:04.057Z,20.77
2022-11-27T02:17:53.417Z,19.37
2022-11-27T02:20:48.870Z,23.00
2022-11-27T02:24:23.200Z,20.40
2022-11-27T02:27:23.475Z,20.67
2022-11-27T02:30:09.765Z,20.53
2022-11-27T02:32:58.303Z,21.37
2022-11-27T02:35:49.382Z,19.07
2022-11-27T02:38:39.482Z,21.17
2022-11-27T02:41:29.526Z,19.63
2022-11-27T02:44:14.770Z,20.97
2022-11-27T02:47:00.749Z,20.63
2022-11-27T02:49:46.374Z,20.63
2022-11-27T02:52:32.529Z,20.83
2022-11-27T02:55:21.979Z,22.20
2022-11-27T02:58:10.534Z,22.33
2022-11-27T03:00:56.013Z,21.63
2022-11-27T03:03:45.826Z,20.23
2022-11-27T03:06:35.947Z,18.63
2022-11-27T03:09:25.629Z,20.40
2022-11-27T03:12:13.133Z,22.27
2022-11-27T03:14:57.189Z,22.87
2022-11-27T03:17:53.049Z,18.70
2022-11-27T03:20:42.271Z,23.27
2022-11-27T03:23:26.243Z,22.37
2022-11-27T03:26:10.293Z,21.97
2022-11-27T03:28:56.607Z,19.73
2022-11-27T03:31:41.310Z,25.57
2022-11-27T03:34:25.593Z,22.80
2022-11-27T03:37:11.408Z,25.97
2022-11-27T03:39:56.273Z,22.27
2022-11-27T03:42:52.965Z,24.00
2022-11-27T03:45:44.986Z,22.60
2022-11-27T03:48:36.715Z,23.57
2022-11-27T03:51:26.654Z,23.07
2022-11-27T03:54:22.238Z,21.93
2022-11-27T03:57:14.464Z,24.53
2022-11-27T04:00:03.818Z,27.40
2022-11-27T04:02:52.787Z,23.63
2022-11-27T04:05:36.859Z,24.87
2022-11-27T04:08:21.060Z,22.00
2022-11-27T04:11:06.608Z,22.80
2022-11-27T04:13:52.192Z,27.27
2022-11-27T04:16:36.037Z,25.07
2022-11-27T04:19:19.950Z,27.40
2022-11-27T04:22:03.726Z,23.93
2022-11-27T04:24:47.513Z,25.27
2022-11-27T04:27:32.665Z,28.87
2022-11-27T04:30:16.528Z,28.23
2022-11-27T04:33:00.226Z,26.80
2022-11-27T04:35:44.404Z,26.17
2022-11-27T04:38:28.227Z,25.73
2022-11-27T04:41:11.964Z,23.63
2022-11-27T04:43:57.070Z,28.37
2022-11-27T04:46:40.833Z,29.20
2022-11-27T04:49:24.718Z,26.40
2022-11-27T04:52:08.708Z,25.10
2022-11-27T04:54:58.352Z,28.73
2022-11-27T04:57:43.708Z,26.63
2022-11-27T05:00:28.984Z,24.60
2022-11-27T05:03:12.869Z,24.67
2022-11-27T05:05:57.607Z,25.63
2022-11-27T05:08:41.328Z,27.97
2022-11-27T05:11:25.033Z,25.50
2022-11-27T05:14:18.252Z,24.73
2022-11-27T05:17:03.811Z,25.43
2022-11-27T05:19:47.906Z,24.70
2022-11-27T05:22:32.282Z,24.43
2022-11-27T05:25:16.518Z,27.40
2022-11-27T05:28:00.547Z,24.83
2022-11-27T05:30:44.473Z,30.23
2022-11-27T05:33:29.849Z,30.70
2022-11-27T05:36:13.975Z,41.10
2022-11-27T05:38:57.947Z,30.47
2022-11-27T05:41:43.698Z,30.07
2022-11-27T05:44:28.380Z,26.30
2022-11-27T05:47:12.355Z,29.17
2022-11-27T05:49:57.741Z,25.33
2022-11-27T05:52:41.590Z,24.03
2022-11-27T05:55:25.657Z,25.90
2022-11-27T05:58:09.616Z,27.27
2022-11-27T06:00:54.021Z,27.23
2022-11-27T06:03:39.188Z,26.17
2022-11-27T06:06:24.680Z,23.87
2022-11-27T06:09:12.742Z,27.83
2022-11-27T06:11:57.426Z,27.83
2022-11-27T06:14:41.640Z,24.77
2022-11-27T06:17:26.196Z,27.30
2022-11-27T06:20:10.664Z,27.63
2022-11-27T06:22:57.478Z,25.00
2022-11-27T06:25:41.319Z,22.57
2022-11-27T06:28:25.086Z,27.60
2022-11-27T06:31:15.998Z,21.90
2022-11-27T06:34:02.061Z,25.40
2022-11-27T06:36:46.535Z,26.83
2022-11-27T06:39:31.766Z,26.23
2022-11-27T06:42:15.663Z,25.67
2022-11-27T06:44:59.529Z,28.20
2022-11-27T06:47:43.233Z,27.27
2022-11-27T06:50:27.214Z,28.63
2022-11-27T06:53:10.889Z,24.23
2022-11-27T06:55:55.958Z,25.17
2022-11-27T06:58:40.434Z,23.40
2022-11-27T07:01:25.925Z,21.13
2022-11-27T07:04:11.900Z,24.83
2022-11-27T07:06:56.042Z,23.33
2022-11-27T07:09:39.788Z,22.97
2022-11-27T07:12:24.872Z,21.67
2022-11-27T07:15:09.683Z,24.23
2022-11-27T07:17:53.605Z,23.67
2022-11-27T07:20:37.382Z,21.53
2022-11-27T07:23:21.235Z,19.47
2022-11-27T07:26:08.047Z,19.03
2022-11-27T07:28:53.453Z,19.00
2022-11-27T07:31:37.235Z,19.77
2022-11-27T07:34:21.881Z,23.27
2022-11-27T07:37:05.894Z,17.40
2022-11-27T07:40:04.733Z,26.17
2022-11-27T07:42:48.536Z,18.00
2022-11-27T07:45:35.753Z,14.80
2022-11-27T07:48:19.563Z,9.60
2022-11-27T07:51:03.526Z,12.13
2022-11-27T07:53:48.682Z,13.90
2022-11-27T07:56:32.647Z,13.73
2022-11-27T07:59:16.572Z,11.37
2022-11-27T08:02:01.864Z,11.57
2022-11-27T08:04:45.740Z,11.60
2022-11-27T08:07:30.404Z,11.77
2022-11-27T08:10:14.350Z,11.80
2022-11-27T08:12:58.765Z,23.07
2022-11-27T08:15:42.499Z,10.07
2022-11-27T08:18:27.774Z,11.70
2022-11-27T08:21:11.520Z,11.70
2022-11-27T08:23:55.397Z,13.87
2022-11-27T08:26:39.240Z,12.83
2022-11-27T08:29:23.331Z,13.47
2022-11-27T08:32:07.856Z,12.57
2022-11-27T08:34:53.377Z,14.27
2022-11-27T08:37:37.595Z,8.03
2022-11-27T08:40:21.485Z,11.77
2022-11-27T08:43:05.480Z,13.13
2022-11-27T08:45:49.703Z,11.30
2022-11-27T08:48:33.602Z,14.13
2022-11-27T08:51:19.154Z,10.63
2022-11-27T08:54:03.692Z,14.67
2022-11-27T08:56:47.645Z,14.40
2022-11-27T08:59:31.901Z,10.37
2022-11-27T09:02:15.944Z,10.13
2022-11-27T09:04:59.973Z,10.97
2022-11-27T09:07:45.483Z,9.10
2022-11-27T09:10:29.458Z,7.90
2022-11-27T09:13:13.513Z,9.80
2022-11-27T09:15:58.417Z,9.97
2022-11-27T09:18:44.725Z,10.87
2022-11-27T09:21:31.495Z,10.80
2022-11-27T09:24:16.626Z,11.13
2022-11-27T09:27:00.375Z,9.97
2022-11-27T09:29:44.080Z,8.57
2022-11-27T09:32:27.879Z,9.17
2022-11-27T09:35:11.784Z,10.20
2022-11-27T09:37:55.662Z,8.37
2022-11-27T09:40:45.204Z,8.03
2022-11-27T09:43:31.737Z,9.67
2022-11-27T09:46:25.968Z,9.53
2022-11-27T09:49:14.973Z,6.53
2022-11-27T09:52:03.561Z,7.37
2022-11-27T09:54:55.022Z,10.23
2022-11-27T09:57:44.014Z,9.83
2022-11-27T10:00:28.298Z,7.90
2022-11-27T10:03:15.773Z,10.10
2022-11-27T10:06:10.125Z,13.53
2022-11-27T10:09:07.502Z,6.50
2022-11-27T10:11:58.051Z,14.20
2022-11-27T10:14:56.120Z,7.87
2022-11-27T10:17:43.325Z,11.40
2022-11-27T10:20:33.304Z,7.00
2022-11-27T10:23:25.778Z,8.63
2022-11-27T10:26:17.054Z,9.47
2022-11-27T10:29:06.047Z,10.60
2022-11-27T10:31:57.403Z,10.07
2022-11-27T10:34:44.720Z,6.03
2022-11-27T10:37:31.917Z,5.60
2022-11-27T10:40:23.900Z,6.00
2022-11-27T10:43:13.766Z,11.83
2022-11-27T10:46:01.704Z,8.77
2022-11-27T10:48:46.895Z,6.20
2022-11-27T10:51:33.893Z,6.43
2022-11-27T10:54:25.019Z,9.77
2022-11-27T10:57:39.138Z,5.87
2022-11-27T11:00:25.180Z,5.10
2022-11-27T11:03:18.931Z,6.20
2022-11-27T11:06:23.209Z,9.40
2022-11-27T11:09:14.260Z,9.97
2022-11-27T11:12:08.772Z,9.40
2022-11-27T11:14:53.982Z,10.93
2022-11-27T11:17:38.523Z,7.20
2022-11-27T11:20:24.681Z,8.80
2022-11-27T11:23:22.241Z,6.93
2022-11-27T11:26:14.580Z,8.40
2022-11-27T11:29:00.625Z,11.07
2022-11-27T11:31:44.925Z,10.07
2022-11-27T11:34:30.671Z,8.40
2022-11-27T11:37:23.831Z,9.30
2022-11-27T11:40:24.830Z,7.77
2022-11-27T11:43:25.528Z,12.33
2022-11-27T11:46:19.118Z,8.37
2022-11-27T11:49:07.383Z,8.83
2022-11-27T11:52:24.639Z,9.13
2022-11-27T11:55:17.837Z,7.17
2022-11-27T11:58:34.917Z,7.80
2022-11-27T12:01:33.337Z,7.73
2022-11-27T12:04:43.029Z,5.70
2022-11-27T12:07:41.422Z,7.00
2022-11-27T12:10:32.558Z,7.73
2022-11-27T12:13:33.188Z,6.97
2022-11-27T12:16:24.497Z,5.83
2022-11-27T12:19:31.539Z,7.83
2022-11-27T12:22:28.501Z,8.00
2022-11-27T12:25:27.575Z,10.47
2022-11-27T12:28:30.206Z,8.53
2022-11-27T12:31:24.477Z,8.70
2022-11-27T12:34:18.846Z,11.40
2022-11-27T12:37:19.721Z,7.57
2022-11-27T12:40:27.495Z,8.30
2022-11-27T12:43:24.541Z,7.67
2022-11-27T12:46:15.041Z,8.13
2022-11-27T12:49:04.121Z,9.00
2022-11-27T12:51:52.257Z,12.50
2022-11-27T12:54:42.833Z,10.93
2022-11-27T12:57:35.265Z,11.07
2022-11-27T13:00:23.148Z,11.30
2022-11-27T13:03:14.141Z,12.30
2022-11-27T13:06:05.762Z,9.53
2022-11-27T13:08:58.443Z,20.77
2022-11-27T13:11:43.163Z,10.07
2022-11-27T13:14:29.535Z,8.53
2022-11-27T13:17:18.155Z,7.43
2022-11-27T13:20:04.253Z,8.30
2022-11-27T13:22:49.493Z,7.20
2022-11-27T13:25:37.565Z,8.67
2022-11-27T13:28:32.131Z,7.47
2022-11-27T13:31:23.279Z,10.50
2022-11-27T13:34:12.966Z,11.57
2022-11-27T13:37:00.094Z,10.83
2022-11-27T13:39:44.257Z,10.93
2022-11-27T13:42:28.807Z,9.87
2022-11-27T13:45:22.334Z,8.43
2022-11-27T13:48:22.980Z,10.13
2022-11-27T13:51:10.732Z,9.30
2022-11-27T13:53:54.793Z,9.33
2022-11-27T13:56:39.120Z,8.57
2022-11-27T13:59:24.878Z,8.83
2022-11-27T14:02:09.410Z,8.57
2022-11-27T14:04:56.606Z,9.30
2022-11-27T14:07:45.257Z,8.63
2022-11-27T14:10:31.253Z,8.03
2022-11-27T14:13:15.189Z,9.23
2022-11-27T14:16:02.183Z,8.87
2022-11-27T14:18:52.193Z,10.30
2022-11-27T14:21:42.868Z,13.07
2022-11-27T14:24:37.023Z,9.93
2022-11-27T14:27:23.039Z,14.97
2022-11-27T14:30:22.838Z,13.93
2022-11-27T14:33:17.205Z,10.47
2022-11-27T14:36:02.747Z,11.70
2022-11-27T14:38:48.957Z,8.00
2022-11-27T14:41:34.221Z,8.60
2022-11-27T14:44:19.265Z,8.00
2022-11-27T14:47:06.178Z,13.13
2022-11-27T14:49:56.183Z,10.93
2022-11-27T14:52:40.567Z,12.93
2022-11-27T14:55:27.880Z,11.13
2022-11-27T14:58:20.261Z,13.37
2022-11-27T15:01:06.917Z,8.63
2022-11-27T15:03:56.978Z,12.43
2022-11-27T15:06:43.095Z,13.00
2022-11-27T15:09:32.648Z,11.23
2022-11-27T15:12:19.976Z,10.00
2022-11-27T15:15:09.017Z,11.07
2022-11-27T15:17:55.624Z,10.67
2022-11-27T15:20:42.232Z,12.53
2022-11-27T15:23:29.127Z,17.07
2022-11-27T15:26:18.824Z,12.37
2022-11-27T15:29:06.449Z,11.60
2022-11-27T15:31:54.994Z,14.33
2022-11-27T15:34:40.889Z,17.70
2022-11-27T15:37:32.490Z,17.33
2022-11-27T15:40:29.250Z,17.63
2022-11-27T15:43:16.349Z,20.70
2022-11-27T15:46:03.025Z,19.53
2022-11-27T15:48:53.238Z,19.83
2022-11-27T15:51:38.822Z,16.30
2022-11-27T15:54:24.838Z,13.47
2022-11-27T15:57:10.490Z,16.03
2022-11-27T15:59:56.243Z,19.13
2022-11-27T16:02:41.419Z,17.93
2022-11-27T16:05:32.293Z,15.30
2022-11-27T16:08:18.449Z,17.67
2022-11-27T16:11:04.989Z,19.57
2022-11-27T16:13:50.602Z,18.67
2022-11-27T16:16:36.600Z,25.93
2022-11-27T16:19:22.614Z,21.33
2022-11-27T16:22:13.656Z,21.57
2022-11-27T16:25:01.825Z,19.37
2022-11-27T16:27:49.112Z,24.70
2022-11-27T16:30:34.983Z,31.20
2022-11-27T16:33:22.489Z,27.27
2022-11-27T16:36:09.281Z,22.13
2022-11-27T16:38:57.827Z,28.73
2022-11-27T16:41:46.068Z,18.73
2022-11-27T16:44:32.817Z,20.63
2022-11-27T16:47:21.799Z,17.90
2022-11-27T16:50:09.048Z,22.87
2022-11-27T16:52:56.871Z,20.57
2022-11-27T16:55:51.631Z,19.23
2022-11-27T16:58:42.971Z,23.17
2022-11-27T17:01:32.988Z,27.47
2022-11-27T17:04:20.747Z,28.03
2022-11-27T17:07:09.683Z,28.37
2022-11-27T17:09:56.047Z,23.97
2022-11-27T17:12:44.464Z,26.33
2022-11-27T17:15:32.340Z,25.67
2022-11-27T17:18:19.697Z,22.50
2022-11-27T17:21:10.912Z,24.43
2022-11-27T17:23:59.632Z,27.77
2022-11-27T17:26:46.510Z,28.97
2022-11-27T17:29:36.453Z,28.57
2022-11-27T17:32:25.733Z,31.70
2022-11-27T17:35:12.353Z,30.60
2022-11-27T17:37:58.218Z,33.00
2022-11-27T17:40:46.761Z,31.37
2022-11-27T17:43:35.561Z,30.67
2022-11-27T17:46:24.602Z,31.30
2022-11-27T17:49:12.612Z,60.07
2022-11-27T17:52:04.869Z,28.80
2022-11-27T17:54:58.680Z,31.30
2022-11-27T17:57:44.741Z,29.37
2022-11-27T18:00:33.882Z,32.03
2022-11-27T18:03:21.026Z,35.70
2022-11-27T18:06:07.968Z,32.33
2022-11-27T18:08:56.891Z,35.77
2022-11-27T18:11:42.933Z,34.63
2022-11-27T18:14:29.869Z,34.43
2022-11-27T18:17:18.442Z,32.97
2022-11-27T18:20:06.081Z,32.87
2022-11-27T18:22:52.599Z,37.90
2022-11-27T18:25:47.587Z,36.33
2022-11-27T18:28:34.543Z,30.97
2022-11-27T18:31:21.896Z,31.33
2022-11-27T18:34:07.545Z,30.63
2022-11-27T18:36:58.333Z,37.20
2022-11-27T18:39:46.489Z,33.33
2022-11-27T18:42:35.129Z,27.97
2022-11-27T18:45:33.412Z,36.87
2022-11-27T18:48:21.398Z,31.77
2022-11-27T18:51:11.370Z,42.00
2022-11-27T18:54:10.698Z,40.87
2022-11-27T18:57:00.852Z,39.03
2022-11-27T18:59:49.305Z,36.43
2022-11-27T19:02:36.335Z,36.23
2022-11-27T19:05:22.183Z,30.30
2022-11-27T19:08:11.241Z,35.07
2022-11-27T19:11:02.826Z,34.37
2022-11-27T19:13:49.524Z,27.10
2022-11-27T19:16:40.373Z,31.83
2022-11-27T19:19:53.893Z,28.70
2022-11-27T19:22:33.312Z,26.43
2022-11-27T19:25:18.984Z,24.63
2022-11-27T19:28:06.266Z,21.90
2022-11-27T19:30:53.913Z,23.20
2022-11-27T19:33:41.005Z,24.47
2022-11-27T19:36:27.370Z,23.17
2022-11-27T19:39:19.307Z,31.37
2022-11-27T19:42:08.919Z,27.57
2022-11-27T19:44:57.194Z,30.10
2022-11-27T19:47:45.874Z,31.07
2022-11-27T19:50:30.385Z,21.60
2022-11-27T19:53:16.832Z,25.73
2022-11-27T19:56:02.607Z,26.60
2022-11-27T19:58:48.225Z,23.07
2022-11-27T20:01:35.478Z,24.93
2022-11-27T20:04:24.518Z,23.17
2022-11-27T20:07:11.465Z,24.00
2022-11-27T20:09:58.510Z,20.20
2022-11-27T20:12:44.503Z,19.77
2022-11-27T20:15:32.150Z,22.67
2022-11-27T20:18:19.441Z,20.20
2022-11-27T20:21:10.986Z,22.27
2022-11-27T20:23:58.160Z,23.30
2022-11-27T20:26:45.528Z,21.23
2022-11-27T20:29:35.849Z,21.37
2022-11-27T20:32:22.042Z,22.53
2022-11-27T20:35:09.904Z,21.23
2022-11-27T20:37:58.624Z,25.70
2022-11-27T20:40:44.448Z,21.57
2022-11-27T20:43:31.599Z,21.10
2022-11-27T20:46:21.246Z,22.10
2022-11-27T20:49:07.704Z,20.27
2022-11-27T20:51:57.769Z,20.87
2022-11-27T20:54:44.694Z,20.23
2022-11-27T20:57:31.162Z,23.37
2022-11-27T21:00:17.614Z,25.37
2022-11-27T21:03:02.625Z,23.00
2022-11-27T21:05:49.342Z,25.00
2022-11-27T21:08:36.578Z,22.67
2022-11-27T21:11:26.235Z,19.53
2022-11-27T21:14:13.672Z,17.73
2022-11-27T21:17:04.525Z,19.70
2022-11-27T21:19:52.530Z,23.83
2022-11-27T21:22:38.516Z,23.40
2022-11-27T21:25:27.546Z,21.20
2022-11-27T21:28:13.299Z,18.27
2022-11-27T21:31:06.815Z,20.83
2022-11-27T21:33:53.807Z,19.70
2022-11-27T21:36:40.466Z,18.97
2022-11-27T21:39:26.824Z,19.67
2022-11-27T21:42:13.522Z,18.87
2022-11-27T21:44:58.773Z,18.07
2022-11-27T21:47:43.935Z,17.57
2022-11-27T21:50:28.510Z,20.60
2022-11-27T21:53:13.676Z,22.67
2022-11-27T21:55:59.141Z,18.90
2022-11-27T21:58:45.966Z,23.13
2022-11-27T22:01:31.039Z,24.60
2022-11-27T22:04:16.055Z,21.00
2022-11-27T22:07:01.109Z,21.53
2022-11-27T22:09:45.574Z,19.87
2022-11-27T22:12:30.274Z,19.00
2022-11-27T22:15:16.509Z,17.70
2022-11-27T22:18:01.538Z,14.43
2022-11-27T22:20:46.685Z,16.60
2022-11-27T22:23:31.091Z,16.70
2022-11-27T22:26:17.320Z,23.67
2022-11-27T22:29:01.293Z,16.97
2022-11-27T22:31:46.951Z,18.87
2022-11-27T22:34:31.954Z,17.73
2022-11-27T22:37:16.435Z,19.37
2022-11-27T22:40:00.450Z,20.63
2022-11-27T22:42:44.414Z,23.50
2022-11-27T22:45:28.548Z,23.73
2022-11-27T22:48:14.172Z,13.00
2022-11-27T22:50:58.235Z,14.70
2022-11-27T22:53:42.311Z,16.00
2022-11-27T22:56:26.799Z,18.80
2022-11-27T22:59:31.709Z,16.77
2022-11-27T23:02:16.191Z,14.27
2022-11-27T23:05:01.961Z,11.50
2022-11-27T23:07:47.000Z,11.97
2022-11-27T23:10:30.979Z,10.67
2022-11-27T23:13:15.072Z,13.23
2022-11-27T23:15:59.087Z,12.90
2022-11-27T23:18:42.989Z,10.90
2022-11-27T23:21:28.214Z,9.70
2022-11-27T23:24:15.366Z,11.73
2022-11-27T23:26:59.327Z,16.27
2022-11-27T23:29:43.077Z,13.63
2022-11-27T23:32:26.927Z,12.90
2022-11-27T23:35:11.501Z,12.80
2022-11-27T23:37:56.802Z,10.67
2022-11-27T23:40:40.618Z,12.40
2022-11-27T23:43:24.469Z,12.53
2022-11-27T23:46:09.956Z,13.47
2022-11-27T23:48:55.691Z,12.70
2022-11-27T23:51:39.618Z,12.17
2022-11-27T23:54:24.852Z,23.23
2022-11-27T23:57:08.592Z,21.40
2022-11-27T23:59:52.515Z,12.80
